sensor_id;sensor_type;location;lat;lon;timestamp;P1;durP1;ratioP1;P2;durP2;ratioP2
11653;SDS011;5883;48.818;9.114;2022-09-29T00:00:55;4.63;;;2.05;;
11653;SDS011;5883;48.818;9.114;2022-09-29T00:03:21;3.15;;;2.42;;
11653;SDS011;5883;48.818;9.114;2022-09-29T00:05:50;3.20;;;2.03;;
11653;SDS011;5883;48.818;9.114;2022-09-29T00:08:17;3.83;;;2.28;;
11653;SDS011;5883;48.818;9.114;2022-09-29T00:10:44;4.45;;;1.90;;
11653;SDS011;5883;48.818;9.114;2022-09-29T00:13:11;5.03;;;2.08;;
11653;SDS011;5883;48.818;9.114;2022-09-29T00:15:38;6.72;;;2.00;;
11653;SDS011;5883;48.818;9.114;2022-09-29T00:18:05;5.78;;;2.50;;
11653;SDS011;5883;48.818;9.114;2022-09-29T00:20:32;4.47;;;2.20;;
11653;SDS011;5883;48.818;9.114;2022-09-29T00:23:00;6.07;;;2.55;;
11653;SDS011;5883;48.818;9.114;2022-09-29T00:25:27;3.65;;;2.50;;
11653;SDS011;5883;48.818;9.114;2022-09-29T00:27:53;3.13;;;2.35;;
11653;SDS011;5883;48.818;9.114;2022-09-29T00:30:20;4.25;;;1.92;;
11653;SDS011;5883;48.818;9.114;2022-09-29T00:32:46;3.55;;;2.15;;
11653;SDS011;5883;48.818;9.114;2022-09-29T00:35:13;5.43;;;2.05;;
11653;SDS011;5883;48.818;9.114;2022-09-29T00:37:42;3.03;;;2.40;;
11653;SDS011;5883;48.818;9.114;2022-09-29T00:40:10;6.20;;;2.35;;
11653;SDS011;5883;48.818;9.114;2022-09-29T00:42:37;3.15;;;2.17;;
11653;SDS011;5883;48.818;9.114;2022-09-29T00:45:05;5.78;;;2.08;;
11653;SDS011;5883;48.818;9.114;2022-09-29T00:47:36;4.03;;;2.08;;
11653;SDS011;5883;48.818;9.114;2022-09-29T00:50:04;3.20;;;2.00;;
11653;SDS011;5883;48.818;9.114;2022-09-29T00:52:32;2.88;;;2.33;;
11653;SDS011;5883;48.818;9.114;2022-09-29T00:55:01;3.92;;;2.35;;
11653;SDS011;5883;48.818;9.114;2022-09-29T00:57:32;5.03;;;2.60;;
11653;SDS011;5883;48.818;9.114;2022-09-29T01:00:00;5.95;;;2.78;;
11653;SDS011;5883;48.818;9.114;2022-09-29T01:02:27;6.78;;;2.53;;
11653;SDS011;5883;48.818;9.114;2022-09-29T01:04:56;5.60;;;2.60;;
11653;SDS011;5883;48.818;9.114;2022-09-29T01:07:23;5.53;;;2.55;;
11653;SDS011;5883;48.818;9.114;2022-09-29T01:09:53;3.60;;;2.60;;
11653;SDS011;5883;48.818;9.114;2022-09-29T01:12:21;3.78;;;2.47;;
11653;SDS011;5883;48.818;9.114;2022-09-29T01:14:49;2.80;;;1.90;;
11653;SDS011;5883;48.818;9.114;2022-09-29T01:17:16;2.70;;;2.17;;
11653;SDS011;5883;48.818;9.114;2022-09-29T01:19:45;2.75;;;2.15;;
11653;SDS011;5883;48.818;9.114;2022-09-29T01:22:18;3.33;;;2.28;;
11653;SDS011;5883;48.818;9.114;2022-09-29T01:24:55;2.97;;;2.30;;
11653;SDS011;5883;48.818;9.114;2022-09-29T01:30:19;5.75;;;2.60;;
11653;SDS011;5883;48.818;9.114;2022-09-29T01:32:51;2.13;;;1.80;;
11653;SDS011;5883;48.818;9.114;2022-09-29T01:35:24;2.97;;;1.90;;
11653;SDS011;5883;48.818;9.114;2022-09-29T01:37:57;3.38;;;1.95;;
11653;SDS011;5883;48.818;9.114;2022-09-29T01:40:28;3.75;;;2.20;;
11653;SDS011;5883;48.818;9.114;2022-09-29T01:43:01;3.65;;;2.28;;
11653;SDS011;5883;48.818;9.114;2022-09-29T01:45:31;2.60;;;2.00;;
11653;SDS011;5883;48.818;9.114;2022-09-29T01:48:00;3.22;;;2.40;;
11653;SDS011;5883;48.818;9.114;2022-09-29T01:50:31;2.95;;;2.25;;
11653;SDS011;5883;48.818;9.114;2022-09-29T01:53:00;3.78;;;2.22;;
11653;SDS011;5883;48.818;9.114;2022-09-29T01:55:30;2.10;;;1.90;;
11653;SDS011;5883;48.818;9.114;2022-09-29T01:57:58;2.08;;;1.88;;
11653;SDS011;5883;48.818;9.114;2022-09-29T02:00:26;3.22;;;2.22;;
11653;SDS011;5883;48.818;9.114;2022-09-29T02:02:56;3.15;;;2.17;;
11653;SDS011;5883;48.818;9.114;2022-09-29T02:05:26;3.60;;;2.25;;
11653;SDS011;5883;48.818;9.114;2022-09-29T02:07:54;3.50;;;2.38;;
11653;SDS011;5883;48.818;9.114;2022-09-29T02:10:22;2.40;;;2.20;;
11653;SDS011;5883;48.818;9.114;2022-09-29T02:12:51;2.85;;;1.92;;
11653;SDS011;5883;48.818;9.114;2022-09-29T02:15:21;2.00;;;1.77;;
11653;SDS011;5883;48.818;9.114;2022-09-29T02:17:51;4.35;;;2.22;;
11653;SDS011;5883;48.818;9.114;2022-09-29T02:20:18;4.18;;;2.20;;
11653;SDS011;5883;48.818;9.114;2022-09-29T02:22:47;2.72;;;2.10;;
11653;SDS011;5883;48.818;9.114;2022-09-29T02:25:15;2.47;;;2.28;;
11653;SDS011;5883;48.818;9.114;2022-09-29T02:27:42;3.60;;;2.05;;
11653;SDS011;5883;48.818;9.114;2022-09-29T02:30:09;3.08;;;2.25;;
11653;SDS011;5883;48.818;9.114;2022-09-29T02:32:36;4.60;;;2.17;;
11653;SDS011;5883;48.818;9.114;2022-09-29T02:35:03;4.03;;;2.20;;
11653;SDS011;5883;48.818;9.114;2022-09-29T02:37:34;3.08;;;2.08;;
11653;SDS011;5883;48.818;9.114;2022-09-29T02:40:08;2.88;;;1.95;;
11653;SDS011;5883;48.818;9.114;2022-09-29T02:42:38;4.57;;;2.00;;
11653;SDS011;5883;48.818;9.114;2022-09-29T02:45:13;2.90;;;2.20;;
11653;SDS011;5883;48.818;9.114;2022-09-29T02:47:46;5.80;;;2.30;;
11653;SDS011;5883;48.818;9.114;2022-09-29T02:50:21;2.92;;;2.17;;
11653;SDS011;5883;48.818;9.114;2022-09-29T02:52:51;3.13;;;2.30;;
11653;SDS011;5883;48.818;9.114;2022-09-29T02:55:23;2.38;;;2.00;;
11653;SDS011;5883;48.818;9.114;2022-09-29T02:57:52;2.50;;;2.10;;
11653;SDS011;5883;48.818;9.114;2022-09-29T03:00:20;3.60;;;2.13;;
11653;SDS011;5883;48.818;9.114;2022-09-29T03:02:46;3.00;;;2.05;;
11653;SDS011;5883;48.818;9.114;2022-09-29T03:05:13;4.63;;;2.65;;
11653;SDS011;5883;48.818;9.114;2022-09-29T03:07:40;3.47;;;2.47;;
11653;SDS011;5883;48.818;9.114;2022-09-29T03:10:07;3.85;;;2.40;;
11653;SDS011;5883;48.818;9.114;2022-09-29T03:12:36;2.42;;;2.22;;
11653;SDS011;5883;48.818;9.114;2022-09-29T03:15:03;3.05;;;1.92;;
11653;SDS011;5883;48.818;9.114;2022-09-29T03:17:30;3.33;;;2.20;;
11653;SDS011;5883;48.818;9.114;2022-09-29T03:19:56;2.78;;;1.80;;
11653;SDS011;5883;48.818;9.114;2022-09-29T03:22:23;3.88;;;2.10;;
11653;SDS011;5883;48.818;9.114;2022-09-29T03:24:49;3.38;;;2.40;;
11653;SDS011;5883;48.818;9.114;2022-09-29T03:27:16;5.97;;;2.50;;
11653;SDS011;5883;48.818;9.114;2022-09-29T03:29:43;3.22;;;2.13;;
11653;SDS011;5883;48.818;9.114;2022-09-29T03:32:10;3.05;;;2.28;;
11653;SDS011;5883;48.818;9.114;2022-09-29T03:34:36;4.90;;;2.38;;
11653;SDS011;5883;48.818;9.114;2022-09-29T03:37:03;3.05;;;2.22;;
11653;SDS011;5883;48.818;9.114;2022-09-29T03:39:29;3.63;;;2.17;;
11653;SDS011;5883;48.818;9.114;2022-09-29T03:41:56;2.17;;;1.98;;
11653;SDS011;5883;48.818;9.114;2022-09-29T03:44:22;3.45;;;2.28;;
11653;SDS011;5883;48.818;9.114;2022-09-29T03:46:50;2.55;;;2.35;;
11653;SDS011;5883;48.818;9.114;2022-09-29T03:49:17;4.30;;;2.30;;
11653;SDS011;5883;48.818;9.114;2022-09-29T03:51:43;3.03;;;1.98;;
11653;SDS011;5883;48.818;9.114;2022-09-29T03:54:10;2.50;;;1.90;;
11653;SDS011;5883;48.818;9.114;2022-09-29T03:56:36;6.78;;;2.08;;
11653;SDS011;5883;48.818;9.114;2022-09-29T03:59:03;3.13;;;2.42;;
11653;SDS011;5883;48.818;9.114;2022-09-29T04:01:32;3.30;;;2.05;;
11653;SDS011;5883;48.818;9.114;2022-09-29T04:04:00;2.50;;;2.03;;
11653;SDS011;5883;48.818;9.114;2022-09-29T04:06:27;5.07;;;2.13;;
11653;SDS011;5883;48.818;9.114;2022-09-29T04:08:53;4.47;;;2.10;;
11653;SDS011;5883;48.818;9.114;2022-09-29T04:11:20;5.15;;;1.90;;
11653;SDS011;5883;48.818;9.114;2022-09-29T04:13:46;1.98;;;1.73;;
11653;SDS011;5883;48.818;9.114;2022-09-29T04:16:13;4.53;;;2.30;;
11653;SDS011;5883;48.818;9.114;2022-09-29T04:18:39;5.80;;;2.28;;
11653;SDS011;5883;48.818;9.114;2022-09-29T04:21:07;5.00;;;2.30;;
11653;SDS011;5883;48.818;9.114;2022-09-29T04:23:34;3.08;;;2.15;;
11653;SDS011;5883;48.818;9.114;2022-09-29T04:26:01;2.92;;;2.03;;
11653;SDS011;5883;48.818;9.114;2022-09-29T04:28:29;2.53;;;2.30;;
11653;SDS011;5883;48.818;9.114;2022-09-29T04:30:56;2.72;;;2.05;;
11653;SDS011;5883;48.818;9.114;2022-09-29T04:33:22;4.40;;;2.45;;
11653;SDS011;5883;48.818;9.114;2022-09-29T04:35:49;5.35;;;2.70;;
11653;SDS011;5883;48.818;9.114;2022-09-29T04:38:17;4.22;;;2.58;;
11653;SDS011;5883;48.818;9.114;2022-09-29T04:40:43;5.15;;;2.60;;
11653;SDS011;5883;48.818;9.114;2022-09-29T04:43:10;3.28;;;2.75;;
11653;SDS011;5883;48.818;9.114;2022-09-29T04:45:36;4.15;;;2.92;;
11653;SDS011;5883;48.818;9.114;2022-09-29T04:48:03;3.72;;;2.97;;
11653;SDS011;5883;48.818;9.114;2022-09-29T04:50:29;3.15;;;2.85;;
11653;SDS011;5883;48.818;9.114;2022-09-29T04:52:56;3.33;;;2.95;;
11653;SDS011;5883;48.818;9.114;2022-09-29T04:55:24;3.35;;;2.70;;
11653;SDS011;5883;48.818;9.114;2022-09-29T04:57:50;3.60;;;2.85;;
11653;SDS011;5883;48.818;9.114;2022-09-29T05:00:17;3.10;;;2.47;;
11653;SDS011;5883;48.818;9.114;2022-09-29T05:02:44;4.05;;;3.10;;
11653;SDS011;5883;48.818;9.114;2022-09-29T05:05:10;3.75;;;2.70;;
11653;SDS011;5883;48.818;9.114;2022-09-29T05:07:37;5.60;;;3.00;;
11653;SDS011;5883;48.818;9.114;2022-09-29T05:10:06;4.60;;;2.90;;
11653;SDS011;5883;48.818;9.114;2022-09-29T05:12:33;3.70;;;2.83;;
11653;SDS011;5883;48.818;9.114;2022-09-29T05:15:00;5.32;;;3.50;;
11653;SDS011;5883;48.818;9.114;2022-09-29T05:17:30;5.32;;;3.35;;
11653;SDS011;5883;48.818;9.114;2022-09-29T05:20:01;10.40;;;3.20;;
11653;SDS011;5883;48.818;9.114;2022-09-29T05:22:27;4.07;;;2.92;;
11653;SDS011;5883;48.818;9.114;2022-09-29T05:24:54;4.85;;;3.10;;
11653;SDS011;5883;48.818;9.114;2022-09-29T05:27:20;4.88;;;2.80;;
11653;SDS011;5883;48.818;9.114;2022-09-29T05:29:48;6.32;;;2.80;;
11653;SDS011;5883;48.818;9.114;2022-09-29T05:32:15;3.53;;;2.65;;
11653;SDS011;5883;48.818;9.114;2022-09-29T05:34:41;5.72;;;2.90;;
11653;SDS011;5883;48.818;9.114;2022-09-29T05:37:08;6.93;;;2.90;;
11653;SDS011;5883;48.818;9.114;2022-09-29T05:39:35;4.30;;;2.85;;
11653;SDS011;5883;48.818;9.114;2022-09-29T05:42:01;3.67;;;3.03;;
11653;SDS011;5883;48.818;9.114;2022-09-29T05:44:30;5.88;;;3.17;;
11653;SDS011;5883;48.818;9.114;2022-09-29T05:46:58;3.80;;;2.92;;
11653;SDS011;5883;48.818;9.114;2022-09-29T05:49:24;5.45;;;3.45;;
11653;SDS011;5883;48.818;9.114;2022-09-29T05:51:51;4.40;;;3.28;;
11653;SDS011;5883;48.818;9.114;2022-09-29T05:54:17;6.47;;;3.40;;
11653;SDS011;5883;48.818;9.114;2022-09-29T05:56:44;9.77;;;3.80;;
11653;SDS011;5883;48.818;9.114;2022-09-29T05:59:10;7.65;;;3.90;;
11653;SDS011;5883;48.818;9.114;2022-09-29T06:01:37;6.07;;;3.60;;
11653;SDS011;5883;48.818;9.114;2022-09-29T06:04:05;3.80;;;3.10;;
11653;SDS011;5883;48.818;9.114;2022-09-29T06:06:31;4.45;;;2.90;;
11653;SDS011;5883;48.818;9.114;2022-09-29T06:09:02;6.85;;;3.67;;
11653;SDS011;5883;48.818;9.114;2022-09-29T06:11:34;9.65;;;3.67;;
11653;SDS011;5883;48.818;9.114;2022-09-29T06:14:01;6.53;;;4.60;;
11653;SDS011;5883;48.818;9.114;2022-09-29T06:16:28;6.93;;;4.70;;
11653;SDS011;5883;48.818;9.114;2022-09-29T06:18:55;6.90;;;4.97;;
11653;SDS011;5883;48.818;9.114;2022-09-29T06:21:24;8.98;;;4.95;;
11653;SDS011;5883;48.818;9.114;2022-09-29T06:23:52;7.30;;;5.20;;
11653;SDS011;5883;48.818;9.114;2022-09-29T06:26:19;8.18;;;4.88;;
11653;SDS011;5883;48.818;9.114;2022-09-29T06:28:46;6.93;;;4.18;;
11653;SDS011;5883;48.818;9.114;2022-09-29T06:31:16;5.47;;;3.78;;
11653;SDS011;5883;48.818;9.114;2022-09-29T06:33:43;8.60;;;4.68;;
11653;SDS011;5883;48.818;9.114;2022-09-29T06:36:11;8.23;;;4.28;;
11653;SDS011;5883;48.818;9.114;2022-09-29T06:39:00;5.57;;;3.35;;
11653;SDS011;5883;48.818;9.114;2022-09-29T06:41:27;4.82;;;3.60;;
11653;SDS011;5883;48.818;9.114;2022-09-29T06:43:54;5.13;;;3.00;;
11653;SDS011;5883;48.818;9.114;2022-09-29T06:46:20;5.28;;;3.22;;
11653;SDS011;5883;48.818;9.114;2022-09-29T06:48:53;6.70;;;3.08;;
11653;SDS011;5883;48.818;9.114;2022-09-29T06:51:19;5.05;;;3.17;;
11653;SDS011;5883;48.818;9.114;2022-09-29T06:53:49;4.82;;;3.13;;
11653;SDS011;5883;48.818;9.114;2022-09-29T06:56:17;9.48;;;3.03;;
11653;SDS011;5883;48.818;9.114;2022-09-29T06:58:44;6.97;;;3.00;;
11653;SDS011;5883;48.818;9.114;2022-09-29T07:01:11;3.38;;;2.80;;
11653;SDS011;5883;48.818;9.114;2022-09-29T07:03:38;3.53;;;2.85;;
11653;SDS011;5883;48.818;9.114;2022-09-29T07:06:05;4.35;;;3.22;;
11653;SDS011;5883;48.818;9.114;2022-09-29T07:08:32;5.40;;;3.60;;
11653;SDS011;5883;48.818;9.114;2022-09-29T07:11:00;3.95;;;2.90;;
11653;SDS011;5883;48.818;9.114;2022-09-29T07:13:29;3.22;;;2.55;;
11653;SDS011;5883;48.818;9.114;2022-09-29T07:15:56;4.18;;;2.53;;
11653;SDS011;5883;48.818;9.114;2022-09-29T07:18:28;5.43;;;2.80;;
11653;SDS011;5883;48.818;9.114;2022-09-29T07:20:55;4.40;;;2.75;;
11653;SDS011;5883;48.818;9.114;2022-09-29T07:23:22;4.13;;;3.00;;
11653;SDS011;5883;48.818;9.114;2022-09-29T07:25:49;6.28;;;2.92;;
11653;SDS011;5883;48.818;9.114;2022-09-29T07:28:16;4.25;;;2.97;;
11653;SDS011;5883;48.818;9.114;2022-09-29T07:30:43;3.38;;;2.97;;
11653;SDS011;5883;48.818;9.114;2022-09-29T07:33:10;4.07;;;3.00;;
11653;SDS011;5883;48.818;9.114;2022-09-29T07:35:37;4.97;;;2.83;;
11653;SDS011;5883;48.818;9.114;2022-09-29T07:38:03;3.95;;;2.97;;
11653;SDS011;5883;48.818;9.114;2022-09-29T07:40:30;6.53;;;3.35;;
11653;SDS011;5883;48.818;9.114;2022-09-29T07:42:56;6.20;;;3.40;;
11653;SDS011;5883;48.818;9.114;2022-09-29T07:45:25;6.68;;;4.07;;
11653;SDS011;5883;48.818;9.114;2022-09-29T07:47:52;6.72;;;3.70;;
11653;SDS011;5883;48.818;9.114;2022-09-29T07:50:21;7.32;;;3.72;;
11653;SDS011;5883;48.818;9.114;2022-09-29T07:52:48;3.53;;;2.97;;
11653;SDS011;5883;48.818;9.114;2022-09-29T07:55:15;7.82;;;3.50;;
11653;SDS011;5883;48.818;9.114;2022-09-29T07:57:41;4.97;;;2.97;;
11653;SDS011;5883;48.818;9.114;2022-09-29T08:00:08;5.88;;;3.40;;
11653;SDS011;5883;48.818;9.114;2022-09-29T08:02:35;4.75;;;3.50;;
11653;SDS011;5883;48.818;9.114;2022-09-29T08:05:03;3.50;;;2.90;;
11653;SDS011;5883;48.818;9.114;2022-09-29T08:07:30;5.95;;;3.45;;
11653;SDS011;5883;48.818;9.114;2022-09-29T08:09:56;5.18;;;2.78;;
11653;SDS011;5883;48.818;9.114;2022-09-29T08:12:23;4.50;;;2.80;;
11653;SDS011;5883;48.818;9.114;2022-09-29T08:14:51;6.90;;;3.00;;
11653;SDS011;5883;48.818;9.114;2022-09-29T08:17:18;4.60;;;3.40;;
11653;SDS011;5883;48.818;9.114;2022-09-29T08:19:44;7.28;;;3.30;;
11653;SDS011;5883;48.818;9.114;2022-09-29T08:22:13;3.35;;;2.85;;
11653;SDS011;5883;48.818;9.114;2022-09-29T08:24:39;3.88;;;2.83;;
11653;SDS011;5883;48.818;9.114;2022-09-29T08:27:07;3.33;;;3.00;;
11653;SDS011;5883;48.818;9.114;2022-09-29T08:29:36;4.95;;;3.28;;
11653;SDS011;5883;48.818;9.114;2022-09-29T08:32:02;6.28;;;2.97;;
11653;SDS011;5883;48.818;9.114;2022-09-29T08:34:29;6.50;;;2.78;;
11653;SDS011;5883;48.818;9.114;2022-09-29T08:36:55;2.90;;;2.63;;
11653;SDS011;5883;48.818;9.114;2022-09-29T08:39:23;4.13;;;2.40;;
11653;SDS011;5883;48.818;9.114;2022-09-29T08:41:51;3.92;;;2.10;;
11653;SDS011;5883;48.818;9.114;2022-09-29T08:44:20;5.97;;;2.60;;
11653;SDS011;5883;48.818;9.114;2022-09-29T08:46:48;2.60;;;2.40;;
11653;SDS011;5883;48.818;9.114;2022-09-29T08:49:16;2.80;;;2.35;;
11653;SDS011;5883;48.818;9.114;2022-09-29T08:51:45;4.35;;;2.50;;
11653;SDS011;5883;48.818;9.114;2022-09-29T08:54:15;3.45;;;2.65;;
11653;SDS011;5883;48.818;9.114;2022-09-29T08:56:45;3.28;;;2.33;;
11653;SDS011;5883;48.818;9.114;2022-09-29T08:59:12;4.13;;;2.40;;
11653;SDS011;5883;48.818;9.114;2022-09-29T09:01:41;3.33;;;2.28;;
11653;SDS011;5883;48.818;9.114;2022-09-29T09:04:31;4.57;;;2.53;;
11653;SDS011;5883;48.818;9.114;2022-09-29T09:07:04;2.65;;;2.40;;
11653;SDS011;5883;48.818;9.114;2022-09-29T09:09:48;2.97;;;2.40;;
11653;SDS011;5883;48.818;9.114;2022-09-29T09:12:30;3.95;;;2.22;;
11653;SDS011;5883;48.818;9.114;2022-09-29T09:15:02;4.60;;;2.40;;
11653;SDS011;5883;48.818;9.114;2022-09-29T09:17:36;4.47;;;2.40;;
11653;SDS011;5883;48.818;9.114;2022-09-29T09:20:17;3.83;;;2.20;;
11653;SDS011;5883;48.818;9.114;2022-09-29T09:22:49;3.63;;;2.20;;
11653;SDS011;5883;48.818;9.114;2022-09-29T09:25:18;2.35;;;1.80;;
11653;SDS011;5883;48.818;9.114;2022-09-29T09:27:48;3.28;;;2.20;;
11653;SDS011;5883;48.818;9.114;2022-09-29T09:30:18;3.70;;;2.20;;
11653;SDS011;5883;48.818;9.114;2022-09-29T09:32:47;3.70;;;2.03;;
11653;SDS011;5883;48.818;9.114;2022-09-29T09:35:19;3.35;;;2.03;;
11653;SDS011;5883;48.818;9.114;2022-09-29T09:37:47;2.55;;;1.88;;
11653;SDS011;5883;48.818;9.114;2022-09-29T09:40:22;3.50;;;2.10;;
11653;SDS011;5883;48.818;9.114;2022-09-29T09:42:51;1.90;;;1.80;;
11653;SDS011;5883;48.818;9.114;2022-09-29T09:45:22;3.35;;;2.05;;
11653;SDS011;5883;48.818;9.114;2022-09-29T09:47:52;2.88;;;2.20;;
11653;SDS011;5883;48.818;9.114;2022-09-29T09:50:21;5.15;;;2.20;;
11653;SDS011;5883;48.818;9.114;2022-09-29T09:52:50;4.55;;;2.08;;
11653;SDS011;5883;48.818;9.114;2022-09-29T09:55:17;2.92;;;2.10;;
11653;SDS011;5883;48.818;9.114;2022-09-29T09:57:58;3.15;;;2.10;;
11653;SDS011;5883;48.818;9.114;2022-09-29T10:00:29;4.45;;;2.22;;
11653;SDS011;5883;48.818;9.114;2022-09-29T10:03:00;5.63;;;2.55;;
11653;SDS011;5883;48.818;9.114;2022-09-29T10:05:28;2.28;;;1.80;;
11653;SDS011;5883;48.818;9.114;2022-09-29T10:07:55;3.92;;;1.90;;
11653;SDS011;5883;48.818;9.114;2022-09-29T10:10:25;3.38;;;2.13;;
11653;SDS011;5883;48.818;9.114;2022-09-29T10:12:54;4.93;;;2.15;;
11653;SDS011;5883;48.818;9.114;2022-09-29T10:15:23;5.05;;;2.33;;
11653;SDS011;5883;48.818;9.114;2022-09-29T10:17:55;4.20;;;2.10;;
11653;SDS011;5883;48.818;9.114;2022-09-29T10:20:30;3.47;;;2.30;;
11653;SDS011;5883;48.818;9.114;2022-09-29T10:23:02;3.22;;;2.17;;
11653;SDS011;5883;48.818;9.114;2022-09-29T10:25:45;2.50;;;1.90;;
11653;SDS011;5883;48.818;9.114;2022-09-29T10:28:16;2.85;;;2.00;;
11653;SDS011;5883;48.818;9.114;2022-09-29T10:30:44;2.53;;;1.60;;
11653;SDS011;5883;48.818;9.114;2022-09-29T10:33:13;2.95;;;1.63;;
11653;SDS011;5883;48.818;9.114;2022-09-29T10:35:41;4.38;;;1.92;;
11653;SDS011;5883;48.818;9.114;2022-09-29T10:38:14;2.88;;;1.73;;
11653;SDS011;5883;48.818;9.114;2022-09-29T10:40:51;2.53;;;1.77;;
11653;SDS011;5883;48.818;9.114;2022-09-29T10:43:21;4.35;;;1.95;;
11653;SDS011;5883;48.818;9.114;2022-09-29T10:45:50;3.38;;;1.65;;
11653;SDS011;5883;48.818;9.114;2022-09-29T10:48:22;2.35;;;1.48;;
11653;SDS011;5883;48.818;9.114;2022-09-29T10:50:50;2.00;;;1.60;;
11653;SDS011;5883;48.818;9.114;2022-09-29T10:53:20;3.42;;;1.75;;
11653;SDS011;5883;48.818;9.114;2022-09-29T10:55:48;2.92;;;1.90;;
11653;SDS011;5883;48.818;9.114;2022-09-29T10:58:18;2.17;;;1.90;;
11653;SDS011;5883;48.818;9.114;2022-09-29T11:00:46;2.47;;;1.60;;
11653;SDS011;5883;48.818;9.114;2022-09-29T11:03:17;2.05;;;1.67;;
11653;SDS011;5883;48.818;9.114;2022-09-29T11:05:50;3.30;;;1.63;;
11653;SDS011;5883;48.818;9.114;2022-09-29T11:08:18;2.22;;;1.80;;
11653;SDS011;5883;48.818;9.114;2022-09-29T11:10:51;4.88;;;1.42;;
11653;SDS011;5883;48.818;9.114;2022-09-29T11:13:33;3.65;;;1.92;;
11653;SDS011;5883;48.818;9.114;2022-09-29T11:16:04;1.98;;;1.60;;
11653;SDS011;5883;48.818;9.114;2022-09-29T11:18:38;1.75;;;1.58;;
11653;SDS011;5883;48.818;9.114;2022-09-29T11:21:08;4.25;;;1.77;;
11653;SDS011;5883;48.818;9.114;2022-09-29T11:23:40;3.03;;;1.60;;
11653;SDS011;5883;48.818;9.114;2022-09-29T11:26:16;2.45;;;1.75;;
11653;SDS011;5883;48.818;9.114;2022-09-29T11:28:54;2.85;;;1.63;;
11653;SDS011;5883;48.818;9.114;2022-09-29T11:31:26;3.45;;;1.63;;
11653;SDS011;5883;48.818;9.114;2022-09-29T11:34:02;3.40;;;1.70;;
11653;SDS011;5883;48.818;9.114;2022-09-29T11:36:34;2.97;;;1.63;;
11653;SDS011;5883;48.818;9.114;2022-09-29T11:41:50;4.50;;;1.60;;
11653;SDS011;5883;48.818;9.114;2022-09-29T11:44:27;3.90;;;1.50;;
11653;SDS011;5883;48.818;9.114;2022-09-29T11:47:00;5.30;;;1.70;;
11653;SDS011;5883;48.818;9.114;2022-09-29T11:49:40;1.73;;;1.17;;
11653;SDS011;5883;48.818;9.114;2022-09-29T11:52:18;1.83;;;1.42;;
11653;SDS011;5883;48.818;9.114;2022-09-29T11:54:53;2.88;;;1.77;;
11653;SDS011;5883;48.818;9.114;2022-09-29T11:57:27;1.73;;;1.60;;
11653;SDS011;5883;48.818;9.114;2022-09-29T12:00:02;4.40;;;1.60;;
11653;SDS011;5883;48.818;9.114;2022-09-29T12:05:35;2.03;;;1.80;;
11653;SDS011;5883;48.818;9.114;2022-09-29T12:08:13;3.05;;;1.65;;
11653;SDS011;5883;48.818;9.114;2022-09-29T12:11:24;5.38;;;1.52;;
11653;SDS011;5883;48.818;9.114;2022-09-29T12:13:57;3.53;;;1.95;;
11653;SDS011;5883;48.818;9.114;2022-09-29T12:16:28;2.40;;;1.58;;
11653;SDS011;5883;48.818;9.114;2022-09-29T12:18:57;3.30;;;1.73;;
11653;SDS011;5883;48.818;9.114;2022-09-29T12:21:28;2.80;;;1.92;;
11653;SDS011;5883;48.818;9.114;2022-09-29T12:23:56;2.65;;;1.92;;
11653;SDS011;5883;48.818;9.114;2022-09-29T12:26:23;7.43;;;1.83;;
11653;SDS011;5883;48.818;9.114;2022-09-29T12:28:51;2.28;;;1.63;;
11653;SDS011;5883;48.818;9.114;2022-09-29T12:31:20;4.07;;;2.30;;
11653;SDS011;5883;48.818;9.114;2022-09-29T12:33:48;6.68;;;1.90;;
11653;SDS011;5883;48.818;9.114;2022-09-29T12:36:19;3.28;;;1.80;;
11653;SDS011;5883;48.818;9.114;2022-09-29T12:39:12;4.43;;;2.50;;
11653;SDS011;5883;48.818;9.114;2022-09-29T12:41:40;3.17;;;2.05;;
11653;SDS011;5883;48.818;9.114;2022-09-29T12:44:12;4.05;;;1.63;;
11653;SDS011;5883;48.818;9.114;2022-09-29T12:46:40;4.85;;;1.60;;
11653;SDS011;5883;48.818;9.114;2022-09-29T12:49:12;3.70;;;1.80;;
11653;SDS011;5883;48.818;9.114;2022-09-29T12:51:41;2.70;;;1.70;;
11653;SDS011;5883;48.818;9.114;2022-09-29T12:54:11;8.15;;;1.90;;
11653;SDS011;5883;48.818;9.114;2022-09-29T12:56:42;8.82;;;1.70;;
11653;SDS011;5883;48.818;9.114;2022-09-29T12:59:17;2.60;;;1.60;;
11653;SDS011;5883;48.818;9.114;2022-09-29T13:01:47;3.20;;;1.70;;
11653;SDS011;5883;48.818;9.114;2022-09-29T13:10:08;3.78;;;1.77;;
11653;SDS011;5883;48.818;9.114;2022-09-29T13:12:55;6.82;;;2.53;;
11653;SDS011;5883;48.818;9.114;2022-09-29T13:15:30;4.53;;;1.65;;
11653;SDS011;5883;48.818;9.114;2022-09-29T13:18:05;7.95;;;2.08;;
11653;SDS011;5883;48.818;9.114;2022-09-29T13:23:24;3.55;;;1.80;;
11653;SDS011;5883;48.818;9.114;2022-09-29T13:26:07;3.60;;;1.65;;
11653;SDS011;5883;48.818;9.114;2022-09-29T13:28:40;2.65;;;2.10;;
11653;SDS011;5883;48.818;9.114;2022-09-29T13:31:09;3.13;;;1.63;;
11653;SDS011;5883;48.818;9.114;2022-09-29T13:33:37;3.63;;;1.67;;
11653;SDS011;5883;48.818;9.114;2022-09-29T13:36:04;3.70;;;1.75;;
11653;SDS011;5883;48.818;9.114;2022-09-29T13:38:31;3.65;;;1.80;;
11653;SDS011;5883;48.818;9.114;2022-09-29T13:41:16;4.60;;;1.67;;
11653;SDS011;5883;48.818;9.114;2022-09-29T13:44:03;2.67;;;1.77;;
11653;SDS011;5883;48.818;9.114;2022-09-29T13:46:35;2.15;;;1.67;;
11653;SDS011;5883;48.818;9.114;2022-09-29T13:49:02;3.80;;;2.20;;
11653;SDS011;5883;48.818;9.114;2022-09-29T13:51:41;5.35;;;1.88;;
11653;SDS011;5883;48.818;9.114;2022-09-29T14:00:03;4.80;;;1.90;;
11653;SDS011;5883;48.818;9.114;2022-09-29T14:02:32;3.28;;;1.73;;
11653;SDS011;5883;48.818;9.114;2022-09-29T14:05:00;3.38;;;1.90;;
11653;SDS011;5883;48.818;9.114;2022-09-29T14:07:35;3.35;;;1.75;;
11653;SDS011;5883;48.818;9.114;2022-09-29T14:10:03;2.45;;;1.65;;
11653;SDS011;5883;48.818;9.114;2022-09-29T14:12:30;4.15;;;1.70;;
11653;SDS011;5883;48.818;9.114;2022-09-29T14:15:01;3.20;;;1.70;;
11653;SDS011;5883;48.818;9.114;2022-09-29T14:17:29;2.72;;;1.65;;
11653;SDS011;5883;48.818;9.114;2022-09-29T14:19:58;2.35;;;1.55;;
11653;SDS011;5883;48.818;9.114;2022-09-29T14:25:30;4.72;;;1.80;;
11653;SDS011;5883;48.818;9.114;2022-09-29T14:27:57;5.85;;;2.15;;
11653;SDS011;5883;48.818;9.114;2022-09-29T14:30:36;3.47;;;1.73;;
11653;SDS011;5883;48.818;9.114;2022-09-29T14:33:07;9.45;;;2.10;;
11653;SDS011;5883;48.818;9.114;2022-09-29T14:35:36;4.82;;;2.15;;
11653;SDS011;5883;48.818;9.114;2022-09-29T14:38:03;5.88;;;2.63;;
11653;SDS011;5883;48.818;9.114;2022-09-29T14:40:31;5.63;;;1.95;;
11653;SDS011;5883;48.818;9.114;2022-09-29T14:43:13;4.28;;;2.05;;
11653;SDS011;5883;48.818;9.114;2022-09-29T14:48:45;11.23;;;2.17;;
11653;SDS011;5883;48.818;9.114;2022-09-29T14:51:33;2.15;;;1.60;;
11653;SDS011;5883;48.818;9.114;2022-09-29T14:54:20;7.70;;;1.90;;
11653;SDS011;5883;48.818;9.114;2022-09-29T14:56:53;3.83;;;1.80;;
11653;SDS011;5883;48.818;9.114;2022-09-29T14:59:28;2.53;;;1.90;;
11653;SDS011;5883;48.818;9.114;2022-09-29T15:01:59;2.78;;;1.80;;
11653;SDS011;5883;48.818;9.114;2022-09-29T15:04:37;3.25;;;1.77;;
11653;SDS011;5883;48.818;9.114;2022-09-29T15:07:04;5.38;;;1.90;;
11653;SDS011;5883;48.818;9.114;2022-09-29T15:09:34;4.43;;;1.90;;
11653;SDS011;5883;48.818;9.114;2022-09-29T15:12:01;3.08;;;1.77;;
11653;SDS011;5883;48.818;9.114;2022-09-29T15:14:29;3.92;;;1.98;;
11653;SDS011;5883;48.818;9.114;2022-09-29T15:17:02;4.68;;;1.80;;
11653;SDS011;5883;48.818;9.114;2022-09-29T15:19:35;4.75;;;2.00;;
11653;SDS011;5883;48.818;9.114;2022-09-29T15:22:10;2.85;;;1.88;;
11653;SDS011;5883;48.818;9.114;2022-09-29T15:24:44;3.97;;;1.55;;
11653;SDS011;5883;48.818;9.114;2022-09-29T15:27:15;2.03;;;1.58;;
11653;SDS011;5883;48.818;9.114;2022-09-29T15:29:44;4.25;;;1.45;;
11653;SDS011;5883;48.818;9.114;2022-09-29T15:32:16;2.95;;;1.73;;
11653;SDS011;5883;48.818;9.114;2022-09-29T15:34:44;3.13;;;1.75;;
11653;SDS011;5883;48.818;9.114;2022-09-29T15:37:13;2.83;;;1.65;;
11653;SDS011;5883;48.818;9.114;2022-09-29T15:39:41;3.83;;;1.60;;
11653;SDS011;5883;48.818;9.114;2022-09-29T15:42:13;3.10;;;1.70;;
11653;SDS011;5883;48.818;9.114;2022-09-29T15:44:44;2.42;;;1.52;;